createdAt,value
2023-02-26T07:53:40.896Z,99434.94
2023-02-26T07:56:10.173Z,99446.19
2023-02-26T07:58:38.802Z,99441.44
2023-02-26T08:01:07.509Z,99448.41
2023-02-26T08:03:36.266Z,99441.88
2023-02-26T08:06:06.019Z,99447.09
2023-02-26T08:08:34.762Z,99443.97
2023-02-26T08:11:05.658Z,99438.25
2023-02-26T08:13:34.700Z,99445.38
2023-02-26T08:16:03.336Z,99442.25
2023-02-26T08:18:32.313Z,99435.09
2023-02-26T08:21:00.937Z,99443.13
2023-02-26T08:23:29.548Z,99443.66
2023-02-26T08:26:04.685Z,99439.13
2023-02-26T08:28:34.234Z,99448.06
2023-02-26T08:31:03.844Z,99449.31
2023-02-26T08:33:33.086Z,99445.63
2023-02-26T08:36:01.800Z,99439.44
2023-02-26T08:38:31.662Z,99444.25
2023-02-26T08:41:00.647Z,99448.31
2023-02-26T08:43:30.828Z,99447.28
2023-02-26T08:46:00.732Z,99456.38
2023-02-26T08:48:29.481Z,99458.72
2023-02-26T08:50:58.339Z,99453.50
2023-02-26T08:53:27.020Z,99455.94
2023-02-26T08:55:55.793Z,99458.47
2023-02-26T08:58:24.458Z,99469.31
2023-02-26T09:00:58.054Z,99478.56
2023-02-26T09:03:26.801Z,99483.63
2023-02-26T09:05:55.591Z,99478.44
2023-02-26T09:08:24.591Z,99488.47
2023-02-26T09:10:53.300Z,99491.00
2023-02-26T09:13:21.964Z,99492.75
2023-02-26T09:15:51.395Z,99496.94
2023-02-26T09:18:21.803Z,99496.00
2023-02-26T09:20:50.590Z,99506.00
2023-02-26T09:23:19.186Z,99506.75
2023-02-26T09:25:48.143Z,99505.78
2023-02-26T09:28:16.776Z,99511.69
2023-02-26T09:30:45.455Z,99511.50
2023-02-26T09:33:14.222Z,99518.97
2023-02-26T09:35:44.321Z,99516.34
2023-02-26T09:38:13.090Z,99508.53
2023-02-26T09:40:48.255Z,99521.84
2023-02-26T09:43:36.022Z,99512.44
2023-02-26T09:46:12.620Z,99519.03
2023-02-26T09:48:42.803Z,99515.56
2023-02-26T09:51:21.009Z,99514.63
2023-02-26T09:53:51.572Z,99526.34
2023-02-26T09:56:25.863Z,99528.75
2023-02-26T09:58:58.218Z,99525.22
2023-02-26T10:01:35.025Z,99529.41
2023-02-26T10:04:15.400Z,99535.34
2023-02-26T10:06:59.783Z,99543.72
2023-02-26T10:09:43.180Z,99538.59
2023-02-26T10:12:17.387Z,99541.88
2023-02-26T10:14:54.366Z,99543.44
2023-02-26T10:17:27.821Z,99538.34
2023-02-26T10:20:05.414Z,99539.09
2023-02-26T10:22:42.233Z,99542.41
2023-02-26T10:25:19.079Z,99550.81
2023-02-26T10:27:59.747Z,99561.75
2023-02-26T10:30:37.009Z,99561.75
2023-02-26T10:33:15.381Z,99556.75
2023-02-26T10:35:53.895Z,99556.00
2023-02-26T10:38:29.700Z,99556.88
2023-02-26T10:41:03.898Z,99567.16
2023-02-26T10:43:39.050Z,99563.84
2023-02-26T10:46:24.204Z,99570.56
2023-02-26T10:49:20.493Z,99573.84
2023-02-26T10:51:49.487Z,99565.38
2023-02-26T10:54:24.852Z,99573.75
2023-02-26T10:56:53.513Z,99561.97
2023-02-26T10:59:23.150Z,99572.09
2023-02-26T11:01:53.396Z,99555.16
2023-02-26T11:04:26.226Z,99561.06
2023-02-26T11:06:58.185Z,99550.94
2023-02-26T11:09:33.202Z,99564.41
2023-02-26T11:12:07.829Z,99569.41
2023-02-26T11:14:36.666Z,99561.06
2023-02-26T11:17:11.856Z,99559.34
2023-02-26T11:19:45.104Z,99562.75
2023-02-26T11:22:15.955Z,99563.59
2023-02-26T11:24:49.396Z,99567.84
2023-02-26T11:27:22.226Z,99572.31
2023-02-26T11:29:58.987Z,99569.91
2023-02-26T11:32:33.592Z,99573.31
2023-02-26T11:35:02.519Z,99579.03
2023-02-26T11:37:36.595Z,99566.25
2023-02-26T11:40:16.084Z,99573.75
2023-02-26T11:42:51.202Z,99571.06
2023-02-26T11:45:22.384Z,99573.47
2023-02-26T11:48:02.438Z,99576.66
2023-02-26T11:50:32.120Z,99579.19
2023-02-26T11:53:17.011Z,99581.72
2023-02-26T11:55:53.941Z,99580.97
2023-02-26T11:58:25.403Z,99593.69
2023-02-26T12:00:55.464Z,99584.47
2023-02-26T12:03:28.686Z,99589.53
2023-02-26T12:06:00.605Z,99581.16
2023-02-26T12:08:38.396Z,99593.81
2023-02-26T12:11:46.898Z,99597.13
2023-02-26T12:14:31.770Z,99581.84
2023-02-26T12:17:15.956Z,99597.81
2023-02-26T12:19:52.059Z,99575.00
2023-02-26T12:22:49.936Z,99584.19
2023-02-26T12:25:38.811Z,99581.59
2023-02-26T12:28:53.437Z,99583.25
2023-02-26T12:31:52.017Z,99591.63
2023-02-26T12:34:55.846Z,99582.44
2023-02-26T12:37:39.809Z,99583.38
2023-02-26T12:40:33.843Z,99573.31
2023-02-26T12:43:10.734Z,99588.06
2023-02-26T12:45:55.836Z,99612.75
2023-02-26T12:48:53.302Z,99597.78
2023-02-26T12:51:37.442Z,99593.66
2023-02-26T12:54:31.893Z,99591.84
2023-02-26T12:57:43.872Z,99583.38
2023-02-26T13:00:32.452Z,99601.03
2023-02-26T13:03:40.965Z,99589.94
2023-02-26T13:07:01.336Z,99592.41
2023-02-26T13:09:42.987Z,99584.63
2023-02-26T13:12:31.578Z,99595.41
2023-02-26T13:15:20.306Z,99595.25
2023-02-26T13:17:55.610Z,99585.97
2023-02-26T13:20:28.981Z,99584.19
2023-02-26T13:23:02.181Z,99596.78
2023-02-26T13:25:38.214Z,99594.25
2023-02-26T13:28:22.047Z,99611.13
2023-02-26T13:30:54.510Z,99605.16
2023-02-26T13:33:29.134Z,99620.38
2023-02-26T13:36:02.188Z,99619.53
2023-02-26T13:38:42.383Z,99616.19
2023-02-26T13:41:17.596Z,99608.72
2023-02-26T13:44:08.388Z,99616.44
2023-02-26T13:46:58.152Z,99628.34
2023-02-26T13:49:42.277Z,99625.16
2023-02-26T13:52:25.607Z,99615.16
2023-02-26T13:54:56.012Z,99624.28
2023-02-26T13:57:39.133Z,99625.94
2023-02-26T14:00:28.178Z,99625.94
2023-02-26T14:02:59.300Z,99616.63
2023-02-26T14:06:09.959Z,99632.69
2023-02-26T14:08:49.914Z,99633.53
2023-02-26T14:11:47.807Z,99637.84
2023-02-26T14:14:27.070Z,99636.06
2023-02-26T14:17:31.088Z,99630.13
2023-02-26T14:20:27.468Z,99632.66
2023-02-26T14:23:37.187Z,99643.75
2023-02-26T14:26:15.415Z,99654.81
2023-02-26T14:28:58.710Z,99659.88
2023-02-26T14:31:28.378Z,99660.81
2023-02-26T14:34:11.024Z,99661.69
2023-02-26T14:36:47.619Z,99653.28
2023-02-26T14:39:28.973Z,99663.41
2023-02-26T14:42:06.844Z,99667.56
2023-02-26T14:44:41.813Z,99664.06
2023-02-26T14:47:12.296Z,99670.75
2023-02-26T14:49:45.383Z,99660.56
2023-02-26T14:52:51.103Z,99652.09
2023-02-26T14:55:46.773Z,99660.47
2023-02-26T14:58:39.259Z,99662.16
2023-02-26T15:01:28.260Z,99656.34
2023-02-26T15:04:47.339Z,99653.88
2023-02-26T15:07:37.901Z,99659.88
2023-02-26T15:10:24.229Z,99659.03
2023-02-26T15:13:30.200Z,99662.47
2023-02-26T15:16:07.245Z,99681.84
2023-02-26T15:19:05.334Z,99663.16
2023-02-26T15:21:52.951Z,99677.50
2023-02-26T15:24:21.740Z,99680.03
2023-02-26T15:26:54.138Z,99674.09
2023-02-26T15:29:30.277Z,99687.56
2023-02-26T15:32:03.374Z,99686.75
2023-02-26T15:34:33.977Z,99690.03
2023-02-26T15:37:02.669Z,99689.94
2023-02-26T15:39:31.418Z,99686.50
2023-02-26T15:42:00.114Z,99687.28
2023-02-26T15:44:33.770Z,99691.50
2023-02-26T15:47:04.837Z,99693.34
2023-02-26T15:49:39.055Z,99696.75
2023-02-26T15:52:10.410Z,99694.34
2023-02-26T15:54:43.142Z,99694.41
2023-02-26T15:57:13.023Z,99696.09
2023-02-26T15:59:47.054Z,99697.75
2023-02-26T16:02:17.596Z,99685.91
2023-02-26T16:04:46.262Z,99693.47
2023-02-26T16:07:15.825Z,99698.47
2023-02-26T16:09:49.270Z,99693.47
2023-02-26T16:12:21.699Z,99695.22
2023-02-26T16:14:57.231Z,99682.69
2023-02-26T16:17:29.135Z,99692.03
2023-02-26T16:20:00.314Z,99708.13
2023-02-26T16:22:33.850Z,99710.72
2023-02-26T16:25:16.751Z,99705.66
2023-02-26T16:27:49.725Z,99710.66
2023-02-26T16:30:26.342Z,99702.16
2023-02-26T16:32:56.189Z,99708.13
2023-02-26T16:35:29.854Z,99713.16
2023-02-26T16:37:58.619Z,99718.22
2023-02-26T16:40:30.012Z,99712.31
2023-02-26T16:43:04.525Z,99723.28
2023-02-26T16:45:51.566Z,99732.50
2023-02-26T16:48:25.890Z,99732.56
2023-02-26T16:51:00.917Z,99735.94
2023-02-26T16:53:35.662Z,99744.38
2023-02-26T16:56:06.148Z,99747.63
2023-02-26T16:58:36.498Z,99750.22
2023-02-26T17:01:14.792Z,99756.03
2023-02-26T17:03:44.967Z,99760.34
2023-02-26T17:06:18.929Z,99761.09
2023-02-26T17:08:54.859Z,99765.34
2023-02-26T17:11:29.914Z,99769.63
2023-02-26T17:14:27.362Z,99780.63
2023-02-26T17:16:57.471Z,99782.25
2023-02-26T17:19:26.189Z,99778.84
2023-02-26T17:21:57.669Z,99783.84
2023-02-26T17:24:32.641Z,99788.91
2023-02-26T17:27:02.686Z,99795.56
2023-02-26T17:29:41.370Z,99802.38
2023-02-26T17:32:19.138Z,99796.38
2023-02-26T17:34:47.991Z,99799.78
2023-02-26T17:37:17.676Z,99807.44
2023-02-26T17:39:46.877Z,99818.38
2023-02-26T17:42:19.426Z,99835.25
2023-02-26T17:44:48.635Z,99830.19
2023-02-26T17:47:24.199Z,99828.41
2023-02-26T17:49:53.948Z,99828.41
2023-02-26T17:52:22.715Z,99841.97
2023-02-26T17:54:51.412Z,99839.44
2023-02-26T17:57:22.938Z,99847.03
2023-02-26T17:59:51.630Z,99844.59
2023-02-26T18:02:27.230Z,99859.03
2023-02-26T18:04:56.139Z,99858.25
2023-02-26T18:07:26.271Z,99864.31
2023-02-26T18:09:54.939Z,99865.25
2023-02-26T18:12:24.140Z,99861.13
2023-02-26T18:14:53.360Z,99855.34
2023-02-26T18:17:26.723Z,99861.34
2023-02-26T18:19:55.578Z,99873.22
2023-02-26T18:22:26.592Z,99865.75
2023-02-26T18:24:56.251Z,99881.13
2023-02-26T18:27:27.060Z,99881.19
2023-02-26T18:29:56.119Z,99882.00
2023-02-26T18:32:27.920Z,99877.75
2023-02-26T18:34:56.662Z,99882.81
2023-02-26T18:37:28.655Z,99885.25
2023-02-26T18:39:57.324Z,99892.00
2023-02-26T18:42:29.258Z,99898.78
2023-02-26T18:44:57.888Z,99905.59
2023-02-26T18:47:27.939Z,99894.72
2023-02-26T18:49:57.080Z,99903.25
2023-02-26T18:52:25.781Z,99907.50
2023-02-26T18:54:54.419Z,99907.50
2023-02-26T18:57:23.113Z,99905.84
2023-02-26T18:59:52.085Z,99913.44
2023-02-26T19:02:20.754Z,99910.06
2023-02-26T19:04:50.788Z,99912.56
2023-02-26T19:07:19.814Z,99909.06
2023-02-26T19:09:48.437Z,99918.38
2023-02-26T19:12:20.161Z,99923.44
2023-02-26T19:14:48.950Z,99930.19
2023-02-26T19:17:17.679Z,99931.84
2023-02-26T19:19:46.313Z,99925.06
2023-02-26T19:22:16.719Z,99939.44
2023-02-26T19:24:46.116Z,99935.25
2023-02-26T19:27:16.034Z,99922.56
2023-02-26T19:29:44.668Z,99929.38
2023-02-26T19:32:14.077Z,99931.97
2023-02-26T19:34:43.076Z,99931.16
2023-02-26T19:37:11.821Z,99939.63
2023-02-26T19:39:41.901Z,99932.97
2023-02-26T19:42:11.073Z,99935.50
2023-02-26T19:44:39.717Z,99941.38
2023-02-26T19:47:08.899Z,99936.41
2023-02-26T19:49:37.631Z,99944.88
2023-02-26T19:52:08.247Z,99944.19
2023-02-26T19:54:37.036Z,99941.66
2023-02-26T19:57:07.011Z,99942.63
2023-02-26T19:59:35.682Z,99947.75
2023-02-26T20:02:05.620Z,99946.09
2023-02-26T20:04:35.668Z,99952.03
2023-02-26T20:07:04.322Z,99957.09
2023-02-26T20:09:33.052Z,99957.09
2023-02-26T20:12:01.870Z,99958.00
2023-02-26T20:14:31.955Z,99955.47
2023-02-26T20:17:00.574Z,99958.88
2023-02-26T20:19:29.170Z,99961.47
2023-02-26T20:21:57.829Z,99969.06
2023-02-26T20:24:26.526Z,99966.63
2023-02-26T20:26:55.194Z,99967.50
2023-02-26T20:29:24.078Z,99962.56
2023-02-26T20:31:54.292Z,99968.53
2023-02-26T20:34:23.105Z,99969.47
2023-02-26T20:36:55.266Z,99961.19
2023-02-26T20:39:24.826Z,99967.13
2023-02-26T20:41:53.434Z,99980.66
2023-02-26T20:44:22.040Z,99975.59
2023-02-26T20:46:50.907Z,99976.47
2023-02-26T20:49:20.906Z,99984.94
2023-02-26T20:51:50.517Z,99988.31
2023-02-26T20:54:20.323Z,99989.22
2023-02-26T20:56:49.243Z,99990.94
2023-02-26T20:59:18.307Z,99993.47
2023-02-26T21:01:47.657Z,99986.78
2023-02-26T21:04:16.255Z,99979.19
2023-02-26T21:06:46.508Z,99990.22
2023-02-26T21:09:15.253Z,99980.16
2023-02-26T21:11:44.816Z,99998.72
2023-02-26T21:14:13.569Z,99994.53
2023-02-26T21:16:42.403Z,99996.31
2023-02-26T21:19:11.038Z,100002.22
2023-02-26T21:21:39.829Z,100001.38
2023-02-26T21:24:10.370Z,99998.03
2023-02-26T21:26:40.033Z,100008.16
2023-02-26T21:29:08.695Z,100004.81
2023-02-26T21:31:37.711Z,99997.28
2023-02-26T21:34:23.626Z,100004.84
2023-02-26T21:36:54.904Z,100009.13
2023-02-26T21:39:25.045Z,100010.88
2023-02-26T21:41:53.890Z,100014.25
2023-02-26T21:44:22.517Z,100015.09
2023-02-26T21:46:51.300Z,100004.16
2023-02-26T21:49:19.955Z,100018.50
2023-02-26T21:51:48.637Z,100012.63
2023-02-26T21:54:17.799Z,100013.41
2023-02-26T21:56:47.906Z,100011.75
2023-02-26T21:59:16.683Z,100010.88
2023-02-26T22:01:45.627Z,99999.09
2023-02-26T22:04:14.242Z,100011.75
2023-02-26T22:06:43.054Z,100008.38
2023-02-26T22:09:11.983Z,100007.56
2023-02-26T22:11:40.619Z,100011.81
2023-02-26T22:14:10.614Z,100010.09
2023-02-26T22:16:39.416Z,100011.75
2023-02-26T22:19:08.082Z,100014.28
2023-02-26T22:21:36.767Z,100014.28
2023-02-26T22:24:06.437Z,100017.63
2023-02-26T22:26:35.382Z,100010.88
2023-02-26T22:29:05.324Z,100017.56
2023-02-26T22:31:35.430Z,100015.94
2023-02-26T22:34:04.246Z,100009.19
2023-02-26T22:36:34.687Z,100004.13
2023-02-26T22:39:05.692Z,100021.81
2023-02-26T22:41:34.985Z,100009.22
2023-02-26T22:44:03.974Z,100017.63
2023-02-26T22:46:34.389Z,100018.50
2023-02-26T22:49:03.316Z,100019.34
2023-02-26T22:51:33.091Z,100016.81
2023-02-26T22:54:02.319Z,100025.28
2023-02-26T22:56:30.975Z,100026.13
2023-02-26T22:58:59.636Z,100022.78
2023-02-26T23:01:29.922Z,100016.94
2023-02-26T23:04:00.412Z,100009.34
2023-02-26T23:06:29.125Z,100020.31
2023-02-26T23:08:57.772Z,100026.13
2023-02-26T23:11:26.655Z,100026.13
2023-02-26T23:13:55.460Z,100020.25
2023-02-26T23:16:24.472Z,100020.31
2023-02-26T23:18:53.199Z,100018.59
2023-02-26T23:21:23.417Z,100016.97
2023-02-26T23:23:52.134Z,100015.31
2023-02-26T23:26:20.787Z,100011.91
2023-02-26T23:28:49.609Z,100019.50
2023-02-26T23:31:18.344Z,100019.50
2023-02-26T23:33:47.096Z,100024.53
2023-02-26T23:36:15.885Z,100020.31
2023-02-26T23:38:45.908Z,100029.50
2023-02-26T23:41:14.582Z,100022.84
2023-02-26T23:43:43.622Z,100019.47
2023-02-26T23:46:12.373Z,100022.00
2023-02-26T23:48:41.046Z,100023.75
2023-02-26T23:51:10.325Z,100027.97
2023-02-26T23:53:39.186Z,100018.75
2023-02-26T23:56:09.775Z,100030.53
2023-02-26T23:58:38.442Z,100028.88
